Time;durP1;ratioP1;P1;durP2;ratioP2;P2;SDS_P1;SDS_P2;PMS_P1;PMS_P2;Temp;Humidity;BMP_temperature;BMP_pressure;BME280_temperature;BME280_humidity;BME280_pressure;Samples;Min_cycle;Max_cycle;Signal;HPM_P1;HPM_P2
2021/12/01 00:22:50;;;;;;;14.13;10.83;;;;;;;0.81;100.00;98476.50;20692078;27;8293846;-55
2021/12/01 00:33:27;;;;;;;12.90;10.70;;;;;;;0.87;100.00;98517.31;20973507;28;20226;-55
2021/12/01 01:04:00;;;;;;;7.63;6.93;;;;;;;0.70;100.00;98610.09;20753807;27;8299250;-58
2021/12/01 01:25:39;;;;;;;9.07;7.80;;;;;;;0.66;100.00;98674.16;21028871;28;20222;-55
2021/12/01 01:46:12;;;;;;;8.57;7.77;;;;;;;0.60;100.00;98719.09;20758094;27;8342453;-55
2021/12/01 02:16:45;;;;;;;7.90;7.10;;;;;;;0.55;100.00;98792.78;20856261;27;8263954;-55
2021/12/01 02:27:22;;;;;;;8.10;7.40;;;;;;;0.55;100.00;98832.16;21055501;28;20308;-54
2021/12/01 02:37:59;;;;;;;9.37;8.37;;;;;;;0.60;100.00;98873.94;21055853;28;20313;-54
2021/12/01 02:48:41;;;;;;;10.27;9.17;;;;;;;0.60;100.00;98897.56;20957914;28;20226;-54
2021/12/01 02:59:19;;;;;;;10.33;9.27;;;;;;;0.57;100.00;98927.41;20977300;28;20629;-54
2021/12/01 03:09:56;;;;;;;11.03;9.93;;;;;;;0.48;100.00;98934.88;20993335;28;20253;-55
2021/12/01 03:20:33;;;;;;;11.30;9.60;;;;;;;0.23;100.00;98942.97;21037938;28;20246;-55
2021/12/01 03:31:10;;;;;;;9.83;8.83;;;;;;;0.15;100.00;98956.41;20996112;28;20705;-54
2021/12/01 03:41:47;;;;;;;10.20;9.13;;;;;;;-0.17;100.00;98977.94;20995477;28;20229;-57
2021/12/01 05:01:52;;;;;;;17.20;10.27;;;;;;;-1.56;100.00;99063.66;20750985;27;8335878;-55
2021/12/01 05:22:23;;;;;;;24.10;16.00;;;;;;;-0.92;100.00;99082.25;20713066;27;8259067;-55
2021/12/01 05:33:05;;;;;;;18.17;11.93;;;;;;;-0.66;100.00;99081.25;21036855;28;20238;-57
2021/12/01 05:43:44;;;;;;;22.80;12.27;;;;;;;-0.59;100.00;99083.56;20972228;28;20242;-57
2021/12/01 05:54:21;;;;;;;20.47;11.60;;;;;;;-0.44;100.00;99101.31;20971605;28;20236;-55
2021/12/01 06:15:01;;;;;;;21.27;12.03;;;;;;;-0.18;100.00;99108.16;20697118;27;8368013;-55
2021/12/01 06:25:38;;;;;;;21.30;10.73;;;;;;;-0.18;100.00;99117.78;20970400;28;20261;-55
2021/12/01 06:46:12;;;;;;;25.90;12.50;;;;;;;0.25;100.00;99122.97;20877470;27;8245865;-58
2021/12/01 06:56:49;;;;;;;35.60;17.23;;;;;;;0.49;100.00;99130.72;21225681;27;20702;-57
2021/12/01 07:17:24;;;;;;;30.73;15.63;;;;;;;0.90;100.00;99150.81;20865284;27;8144576;-56
2021/12/01 07:28:01;;;;;;;27.03;15.33;;;;;;;1.06;100.00;99143.97;21140990;28;20268;-55
2021/12/01 07:38:38;;;;;;;31.00;15.73;;;;;;;1.07;100.00;99150.94;21140179;28;20229;-59
2021/12/01 07:59:14;;;;;;;27.83;16.07;;;;;;;1.48;100.00;99135.06;20766435;27;8088973;-55
2021/12/01 08:09:51;;;;;;;26.57;15.80;;;;;;;1.61;100.00;99145.84;21056943;28;20226;-56
2021/12/01 08:30:23;;;;;;;25.10;15.40;;;;;;;2.24;100.00;99136.66;20691874;27;8318894;-55
2021/12/01 08:41:03;;;;;;;29.10;14.67;;;;;;;2.66;100.00;99119.63;21055901;28;20227;-55
2021/12/01 08:51:40;;;;;;;22.90;14.00;;;;;;;3.06;100.00;99115.78;21056782;28;20235;-56
2021/12/01 09:02:17;;;;;;;22.60;14.07;;;;;;;3.36;100.00;99102.75;21055397;28;20232;-56
2021/12/01 09:12:53;;;;;;;26.57;15.30;;;;;;;3.30;100.00;99097.78;21053481;28;20263;-56
2021/12/01 09:43:25;;;;;;;22.13;14.30;;;;;;;3.46;100.00;99056.47;20721887;27;8318008;-56
2021/12/01 09:54:03;;;;;;;18.03;13.03;;;;;;;3.69;100.00;99048.13;21057015;28;20242;-56
2021/12/01 10:04:40;;;;;;;17.87;12.47;;;;;;;3.83;100.00;99027.09;21042118;28;20233;-56
2021/12/01 10:15:17;;;;;;;17.13;13.03;;;;;;;3.90;100.00;99015.22;21054945;28;20243;-56
2021/12/01 10:25:54;;;;;;;23.00;15.73;;;;;;;3.88;100.00;99008.34;21054314;28;20699;-56
2021/12/01 10:36:33;;;;;;;16.10;12.63;;;;;;;3.80;100.00;99008.78;21038418;28;20263;-56
2021/12/01 10:47:18;;;;;;;13.63;11.47;;;;;;;4.07;100.00;99005.50;21038338;28;20241;-56
2021/12/01 10:57:57;;;;;;;13.40;10.53;;;;;;;4.36;100.00;98988.75;20996447;28;20223;-56
2021/12/01 11:08:36;;;;;;;14.13;10.07;;;;;;;4.60;100.00;98968.78;20994476;28;20634;-57
2021/12/01 11:19:13;;;;;;;12.93;10.63;;;;;;;4.48;100.00;98956.31;20993672;28;20234;-57
2021/12/01 11:29:50;;;;;;;12.33;9.43;;;;;;;4.32;100.00;98939.72;20992909;28;20595;-59
2021/12/01 11:40:27;;;;;;;11.43;9.20;;;;;;;4.23;100.00;98940.25;20991861;28;20249;-59
2021/12/01 12:01:40;;;;;;;13.10;10.53;;;;;;;4.05;100.00;98901.78;20850930;27;8339599;-57
2021/12/01 12:12:03;;;;;;;10.13;9.07;;;;;;;3.98;100.00;98877.56;21057103;28;20718;-57
2021/12/01 12:22:55;;;;;;;11.97;10.70;;;;;;;3.89;100.00;98854.34;21056500;28;20252;-57
2021/12/01 12:33:38;;;;;;;11.87;10.00;;;;;;;3.83;100.00;98833.63;21055312;28;20715;-57
2021/12/01 12:44:36;;;;;;;10.53;9.00;;;;;;;3.79;100.00;98806.59;21054471;28;20218;-57
2021/12/01 12:55:29;;;;;;;8.87;8.00;;;;;;;3.73;100.00;98799.06;21052622;28;20230;-57
2021/12/01 13:06:16;;;;;;;7.40;6.70;;;;;;;3.58;100.00;98777.09;21033517;28;20283;-63
2021/12/01 13:16:53;;;;;;;8.73;7.77;;;;;;;3.34;100.00;98759.25;20995049;28;20261;-58
2021/12/01 13:27:30;;;;;;;8.60;7.70;;;;;;;3.13;100.00;98748.22;20995941;28;20228;-58
2021/12/01 13:38:07;;;;;;;9.50;8.07;;;;;;;2.95;100.00;98718.50;20993765;28;20245;-59
2021/12/01 13:48:44;;;;;;;10.10;7.70;;;;;;;2.69;100.00;98696.31;20993069;28;20258;-59
2021/12/01 13:59:21;;;;;;;9.60;8.07;;;;;;;2.46;100.00;98668.69;20990698;28;20219;-59
2021/12/01 14:19:52;;;;;;;19.90;13.90;;;;;;;2.22;100.00;98614.00;20766861;27;8333234;-60
2021/12/01 14:50:29;;;;;;;18.47;12.57;;;;;;;1.87;100.00;98552.91;20691427;27;8351904;-60
2021/12/01 15:01:09;;;;;;;18.83;12.73;;;;;;;1.83;100.00;98533.81;21024774;28;20231;-59
2021/12/01 15:11:47;;;;;;;22.40;15.07;;;;;;;1.84;100.00;98513.63;21053428;28;20241;-60
2021/12/01 15:32:19;;;;;;;25.07;17.27;;;;;;;1.62;100.00;98479.84;20658564;27;8348088;-57
2021/12/01 15:42:56;;;;;;;23.63;13.80;;;;;;;1.53;100.00;98454.09;20939547;28;20239;-60
2021/12/01 15:53:34;;;;;;;21.80;14.57;;;;;;;1.51;100.00;98440.19;20927451;28;20234;-68
2021/12/01 16:24:00;;;;;;;21.57;14.20;;;;;;;1.66;100.00;98398.09;20880095;27;8200405;-66
2021/12/01 16:44:31;;;;;;;22.43;15.27;;;;;;;1.74;100.00;98369.56;20723104;27;8298775;-65
2021/12/01 16:55:09;;;;;;;19.20;14.40;;;;;;;1.84;100.00;98333.03;21019243;28;20577;-65
2021/12/01 17:05:48;;;;;;;22.07;15.33;;;;;;;1.85;100.00;98302.31;21008937;28;20656;-68
2021/12/01 17:16:26;;;;;;;22.70;15.17;;;;;;;1.91;100.00;98294.91;21004555;28;20509;-67
2021/12/01 18:26:46;;;;;;;17.53;12.77;;;;;;;2.69;100.00;98190.75;20747640;27;8317110;-67
2021/12/01 18:37:23;;;;;;;18.77;14.00;;;;;;;2.78;100.00;98169.06;20928470;28;20709;-71
2021/12/01 18:48:00;;;;;;;21.50;14.80;;;;;;;2.90;100.00;98136.66;20954757;28;20244;-60
2021/12/01 18:58:37;;;;;;;21.83;14.87;;;;;;;3.00;100.00;98128.13;20955895;28;20327;-64
2021/12/01 19:29:08;;;;;;;19.93;14.27;;;;;;;3.50;100.00;98093.00;20511396;27;8326206;-63
2021/12/01 19:49:43;;;;;;;23.67;16.90;;;;;;;3.62;100.00;98060.47;20689124;27;8277767;-61
2021/12/01 20:00:25;;;;;;;20.87;15.37;;;;;;;3.78;100.00;98050.47;20864121;28;20316;-64
2021/12/01 20:21:03;;;;;;;23.03;15.80;;;;;;;4.16;100.00;98033.63;20555990;27;8295604;-67
2021/12/01 20:31:44;;;;;;;18.40;14.40;;;;;;;4.30;100.00;98009.66;20828286;28;20246;-63
2021/12/01 20:42:23;;;;;;;18.60;13.83;;;;;;;4.41;100.00;97993.84;20831239;28;20231;-63
2021/12/01 20:53:07;;;;;;;17.67;13.17;;;;;;;4.54;100.00;97991.97;20817945;28;20720;-63
2021/12/01 21:23:37;;;;;;;13.43;11.17;;;;;;;4.89;100.00;97976.00;20540891;27;8581564;-65
2021/12/01 21:34:14;;;;;;;12.60;11.07;;;;;;;5.00;100.00;97962.78;20830532;28;20926;-67
2021/12/01 21:44:53;;;;;;;12.73;10.70;;;;;;;5.07;100.00;97948.09;20828208;28;20230;-64
2021/12/01 22:05:26;;;;;;;12.30;11.00;;;;;;;5.23;100.00;97921.28;20597296;27;8302257;-63
2021/12/01 22:16:04;;;;;;;10.23;9.13;;;;;;;5.29;100.00;97904.09;20841442;28;20251;-62
2021/12/01 22:36:41;;;;;;;12.57;10.20;;;;;;;5.38;100.00;97887.50;20851868;27;8306290;-64
2021/12/01 22:47:18;;;;;;;10.60;9.00;;;;;;;5.44;100.00;97866.66;21140180;28;20312;-64
2021/12/01 22:58:02;;;;;;;12.43;9.63;;;;;;;5.53;100.00;97851.84;21138871;28;20572;-64
2021/12/01 23:08:42;;;;;;;10.20;9.10;;;;;;;5.54;100.00;97834.19;21132188;28;20225;-63
2021/12/01 23:19:20;;;;;;;9.47;8.47;;;;;;;5.61;100.00;97822.09;21133230;28;20561;-61
2021/12/01 23:29:58;;;;;;;10.93;9.47;;;;;;;5.68;100.00;97816.16;21136410;28;20253;-62
2021/12/01 23:40:35;;;;;;;9.37;8.20;;;;;;;5.72;100.00;97820.22;21121534;28;20684;-63
2021/12/01 23:51:17;;;;;;;8.83;7.77;;;;;;;5.78;100.00;97800.38;21080016;28;20312;-61
